Time;durP1;ratioP1;P1;durP2;ratioP2;P2;SDS_P1;SDS_P2;PMS_P1;PMS_P2;Temp;Humidity;BMP_temperature;BMP_pressure;BME280_temperature;BME280_humidity;BME280_pressure;Samples;Min_cycle;Max_cycle;Signal;HPM_P1;HPM_P2
2022/09/21 00:00:50;;;;;;;4.85;2.10;;;7.90;99.90;;;;;;5096020;27;20074;-39
2022/09/21 00:03:17;;;;;;;5.65;2.17;;;7.90;99.90;;;;;;5094008;28;20056;-48
2022/09/21 00:05:43;;;;;;;8.35;3.30;;;7.90;99.90;;;;;;5095419;28;20035;-38
2022/09/21 00:08:12;;;;;;;5.85;2.13;;;7.90;99.90;;;;;;5091939;28;20054;-48
2022/09/21 00:10:39;;;;;;;4.38;2.92;;;7.80;99.90;;;;;;5080513;28;20505;-50
2022/09/21 00:13:07;;;;;;;4.57;2.88;;;7.90;99.90;;;;;;5093850;28;20054;-38
2022/09/21 00:15:34;;;;;;;4.72;2.78;;;7.90;99.90;;;;;;5089467;28;20886;-47
2022/09/21 00:18:00;;;;;;;5.38;3.13;;;7.90;99.90;;;;;;5093174;28;20054;-49
2022/09/21 00:20:27;;;;;;;4.85;2.72;;;7.80;99.90;;;;;;5058587;28;20597;-51
2022/09/21 00:22:54;;;;;;;4.35;2.33;;;7.80;99.90;;;;;;5094155;28;20071;-50
2022/09/21 00:25:20;;;;;;;5.35;2.25;;;7.70;99.90;;;;;;5072495;28;20058;-39
2022/09/21 00:27:50;;;;;;;4.72;2.15;;;7.80;99.90;;;;;;5076010;28;20096;-39
2022/09/21 00:30:17;;;;;;;5.35;2.28;;;7.80;99.90;;;;;;5074348;28;20051;-39
2022/09/21 00:32:43;;;;;;;4.75;2.78;;;7.70;99.90;;;;;;5092666;28;20054;-39
2022/09/21 00:35:09;;;;;;;6.22;2.30;;;7.80;99.90;;;;;;5095837;28;20064;-38
2022/09/21 00:37:36;;;;;;;5.88;2.30;;;7.70;99.90;;;;;;5090678;28;20074;-39
2022/09/21 00:40:03;;;;;;;3.75;2.20;;;7.70;99.90;;;;;;5094584;28;20163;-38
2022/09/21 00:42:32;;;;;;;3.92;2.05;;;7.60;99.90;;;;;;5094508;28;20040;-39
2022/09/21 00:44:59;;;;;;;4.93;1.98;;;7.60;99.90;;;;;;5095516;28;20337;-39
2022/09/21 00:47:41;;;;;;;4.05;2.05;;;7.60;99.90;;;;;;5094807;28;20044;-39
2022/09/21 00:50:10;;;;;;;4.40;2.50;;;7.50;99.90;;;;;;5091684;28;20051;-38
2022/09/21 00:52:43;;;;;;;5.22;2.35;;;7.50;99.90;;;;;;5095146;28;20047;-39
2022/09/21 00:55:17;;;;;;;3.60;2.38;;;7.50;99.90;;;;;;5080779;28;20406;-39
2022/09/21 00:57:48;;;;;;;5.32;2.40;;;7.50;99.90;;;;;;5096132;28;20046;-38
2022/09/21 01:00:14;;;;;;;6.57;2.28;;;7.50;99.90;;;;;;5100667;28;20040;-39
2022/09/21 01:02:40;;;;;;;3.63;2.33;;;7.50;99.90;;;;;;5056608;28;20063;-49
2022/09/21 01:05:08;;;;;;;3.42;2.35;;;7.40;99.90;;;;;;5097728;28;20035;-47
2022/09/21 01:07:39;;;;;;;5.88;2.28;;;7.30;99.90;;;;;;5096701;28;20140;-51
2022/09/21 01:10:09;;;;;;;5.30;2.85;;;7.30;99.90;;;;;;5110014;27;20801;-50
2022/09/21 01:13:13;;;;;;;3.08;2.17;;;7.30;99.90;;;;;;5095589;28;20047;-50
2022/09/21 01:16:08;;;;;;;4.57;2.35;;;7.30;99.90;;;;;;5070517;28;20097;-50
2022/09/21 01:18:57;;;;;;;3.53;2.15;;;7.20;99.90;;;;;;5076045;28;20159;-48
2022/09/21 01:21:36;;;;;;;4.85;2.00;;;7.20;99.90;;;;;;5093983;28;20547;-48
2022/09/21 01:24:08;;;;;;;4.10;1.77;;;7.10;99.90;;;;;;5087067;28;20130;-50
2022/09/21 01:26:49;;;;;;;3.92;1.63;;;7.10;99.90;;;;;;5095225;28;20040;-49
2022/09/21 01:29:34;;;;;;;3.33;1.50;;;7.00;99.90;;;;;;5097159;28;20047;-47
2022/09/21 01:32:25;;;;;;;3.10;1.67;;;7.00;99.90;;;;;;5071156;28;20083;-39
2022/09/21 01:34:57;;;;;;;3.72;2.47;;;7.00;99.90;;;;;;5094869;28;20051;-39
2022/09/21 01:37:32;;;;;;;3.42;2.10;;;7.00;99.90;;;;;;5095276;28;20051;-39
2022/09/21 01:40:05;;;;;;;4.60;2.40;;;7.00;99.90;;;;;;5089351;28;20392;-51
2022/09/21 01:42:33;;;;;;;4.00;2.15;;;7.00;99.90;;;;;;5089934;28;20048;-49
2022/09/21 01:45:03;;;;;;;5.45;2.78;;;7.00;99.90;;;;;;5095744;28;20083;-48
2022/09/21 01:47:30;;;;;;;4.50;2.33;;;7.00;99.90;;;;;;5094453;28;20060;-50
2022/09/21 01:50:00;;;;;;;7.00;2.38;;;6.90;99.90;;;;;;5084473;28;20066;-39
2022/09/21 01:52:45;;;;;;;4.18;2.63;;;6.90;99.90;;;;;;5098177;28;20126;-40
2022/09/21 01:55:54;;;;;;;4.45;2.17;;;6.90;99.90;;;;;;5099774;28;20047;-49
2022/09/21 01:58:46;;;;;;;3.58;2.30;;;6.90;99.90;;;;;;5087571;28;20498;-48
2022/09/21 02:01:15;;;;;;;;;;;6.90;99.90;;;;;;5099816;28;20096;-50
2022/09/21 02:03:48;;;;;;;4.30;2.30;;;6.90;99.90;;;;;;5063854;28;19928;-48
2022/09/21 02:06:16;;;;;;;4.90;2.38;;;6.80;99.90;;;;;;5081861;28;20561;-47
2022/09/21 02:08:43;;;;;;;4.97;2.75;;;6.90;99.90;;;;;;5100975;27;20517;-52
2022/09/21 02:11:12;;;;;;;5.78;2.83;;;6.90;99.90;;;;;;5059805;28;20048;-39
2022/09/21 02:13:42;;;;;;;5.32;3.00;;;6.80;99.90;;;;;;5090601;28;20142;-51
2022/09/21 02:16:11;;;;;;;6.38;2.90;;;6.70;99.90;;;;;;5092544;28;20055;-47
2022/09/21 02:18:55;;;;;;;4.95;2.60;;;6.70;99.90;;;;;;5076557;28;20040;-49
2022/09/21 02:21:57;;;;;;;4.90;2.80;;;6.70;99.90;;;;;;5096645;28;20379;-50
2022/09/21 02:24:36;;;;;;;5.33;2.57;;;6.70;99.90;;;;;;5080809;28;20059;-48
2022/09/21 02:27:11;;;;;;;5.07;2.50;;;6.70;99.90;;;;;;5099295;27;20096;-46
2022/09/21 02:29:56;;;;;;;3.40;2.08;;;6.60;99.90;;;;;;5095613;28;20556;-47
2022/09/21 02:32:27;;;;;;;3.63;1.88;;;6.60;99.90;;;;;;5097184;28;20182;-49
2022/09/21 02:35:16;;;;;;;2.10;1.40;;;6.60;99.90;;;;;;5075729;28;20054;-46
2022/09/21 02:37:55;;;;;;;1.63;1.42;;;6.50;99.90;;;;;;5108380;27;20070;-50
2022/09/21 02:40:39;;;;;;;3.35;1.65;;;6.50;99.90;;;;;;5095681;28;20079;-48
2022/09/21 02:43:28;;;;;;;4.28;2.28;;;6.40;99.90;;;;;;5093911;28;20040;-49
2022/09/21 02:46:03;;;;;;;3.33;2.10;;;6.40;99.90;;;;;;5090338;27;20047;-47
2022/09/21 02:48:38;;;;;;;4.65;2.10;;;6.40;99.90;;;;;;5114721;27;20040;-50
2022/09/21 02:51:23;;;;;;;3.08;2.22;;;6.40;99.90;;;;;;5093809;28;20036;-38
2022/09/21 02:53:52;;;;;;;3.53;1.90;;;6.40;99.90;;;;;;5061663;28;20558;-39
2022/09/21 02:56:18;;;;;;;3.30;2.10;;;6.30;99.90;;;;;;5098824;28;20047;-39
2022/09/21 02:58:49;;;;;;;3.58;2.00;;;6.30;99.90;;;;;;5079648;28;20086;-50
2022/09/21 03:01:17;;;;;;;6.45;2.08;;;6.30;99.90;;;;;;5076279;28;20050;-47
2022/09/21 03:03:43;;;;;;;4.07;2.10;;;6.30;99.90;;;;;;5114259;27;20039;-48
2022/09/21 03:06:10;;;;;;;5.38;2.45;;;6.30;99.90;;;;;;5094969;28;20083;-51
2022/09/21 03:08:36;;;;;;;3.53;1.70;;;6.30;99.90;;;;;;5077592;28;20078;-47
2022/09/21 03:11:02;;;;;;;10.05;1.83;;;6.30;99.90;;;;;;5097394;27;20123;-47
2022/09/21 03:13:28;;;;;;;3.28;1.80;;;6.20;99.90;;;;;;5074232;28;20044;-48
2022/09/21 03:16:02;;;;;;;4.40;1.88;;;6.10;99.90;;;;;;5089689;28;20056;-46
2022/09/21 03:18:28;;;;;;;3.78;2.03;;;6.10;99.90;;;;;;5097297;27;20517;-47
2022/09/21 03:20:54;;;;;;;3.25;1.63;;;6.10;99.90;;;;;;5092246;28;20112;-51
2022/09/21 03:23:20;;;;;;;6.40;1.70;;;6.10;99.90;;;;;;5093792;27;20043;-49
2022/09/21 03:25:47;;;;;;;4.65;1.90;;;6.10;99.90;;;;;;5078045;28;20123;-51
2022/09/21 03:28:14;;;;;;;2.72;1.77;;;6.00;99.90;;;;;;5095978;28;20879;-46
2022/09/21 03:30:41;;;;;;;3.88;2.15;;;6.00;99.90;;;;;;5096164;28;20333;-48
2022/09/21 03:33:07;;;;;;;4.15;2.22;;;6.10;99.90;;;;;;5080687;27;20055;-39
2022/09/21 03:35:33;;;;;;;5.35;1.95;;;6.00;99.90;;;;;;5096708;28;20035;-38
2022/09/21 03:38:00;;;;;;;6.18;2.42;;;6.00;99.90;;;;;;5075087;28;20950;-38
2022/09/21 03:40:27;;;;;;;2.90;1.73;;;6.00;99.90;;;;;;5098579;28;20043;-39
2022/09/21 03:42:54;;;;;;;3.88;1.90;;;6.00;99.90;;;;;;5089223;28;20043;-39
2022/09/21 03:45:26;;;;;;;3.08;1.92;;;5.90;99.90;;;;;;5095622;28;20055;-38
2022/09/21 03:47:57;;;;;;;4.28;1.88;;;5.90;99.90;;;;;;5093739;27;20623;-39
2022/09/21 03:50:27;;;;;;;2.67;1.65;;;5.90;99.90;;;;;;5094144;28;20147;-38
2022/09/21 03:52:53;;;;;;;5.10;1.92;;;5.90;99.90;;;;;;5095525;28;20078;-39
2022/09/21 03:55:20;;;;;;;6.10;1.90;;;5.90;99.90;;;;;;5095554;27;20486;-39
2022/09/21 03:57:46;;;;;;;5.50;2.00;;;5.90;99.90;;;;;;5100895;27;20044;-39
2022/09/21 04:00:13;;;;;;;3.47;1.83;;;5.90;99.90;;;;;;5099797;28;20518;-38
2022/09/21 04:02:39;;;;;;;4.88;1.95;;;5.80;99.90;;;;;;5098932;28;20048;-38
2022/09/21 04:05:08;;;;;;;3.17;1.70;;;5.90;99.90;;;;;;5064596;27;20050;-38
2022/09/21 04:07:34;;;;;;;3.92;1.95;;;5.80;99.90;;;;;;5089432;28;20038;-38
2022/09/21 04:10:05;;;;;;;4.22;2.10;;;5.80;99.90;;;;;;5072343;28;20047;-46
2022/09/21 04:12:33;;;;;;;5.72;2.33;;;5.80;99.90;;;;;;5093262;28;20047;-50
2022/09/21 04:15:00;;;;;;;5.15;2.45;;;5.80;99.90;;;;;;5082223;28;20055;-39
2022/09/21 04:17:27;;;;;;;4.65;1.88;;;5.80;99.90;;;;;;5093226;28;20043;-38
2022/09/21 04:19:53;;;;;;;5.03;2.50;;;5.80;99.90;;;;;;5097741;28;20112;-39
2022/09/21 04:22:19;;;;;;;4.32;2.10;;;5.80;99.90;;;;;;5092510;28;20051;-51
2022/09/21 04:24:45;;;;;;;4.68;2.30;;;5.80;99.90;;;;;;5098357;27;20051;-40
2022/09/21 04:27:11;;;;;;;4.45;2.78;;;5.80;99.90;;;;;;5097855;28;20085;-38
2022/09/21 04:29:38;;;;;;;7.03;2.58;;;5.80;99.90;;;;;;5077400;28;20044;-38
2022/09/21 04:32:05;;;;;;;4.13;2.40;;;5.70;99.90;;;;;;5092585;28;20071;-38
2022/09/21 04:34:31;;;;;;;7.65;2.90;;;5.80;99.90;;;;;;5093639;28;20127;-39
2022/09/21 04:36:58;;;;;;;5.95;3.00;;;5.70;99.90;;;;;;5098740;28;20039;-38
2022/09/21 04:39:27;;;;;;;5.95;2.58;;;5.70;99.90;;;;;;5091094;28;20044;-50
2022/09/21 04:41:53;;;;;;;4.20;2.20;;;5.70;99.90;;;;;;5092602;28;20043;-39
2022/09/21 04:44:19;;;;;;;5.10;2.65;;;5.70;99.90;;;;;;5090540;28;20084;-50
2022/09/21 04:46:46;;;;;;;4.13;2.60;;;5.70;99.90;;;;;;5094883;28;20523;-47
2022/09/21 04:49:12;;;;;;;7.53;2.53;;;5.60;99.90;;;;;;5095239;28;20130;-38
2022/09/21 04:51:38;;;;;;;4.93;2.55;;;5.70;99.90;;;;;;5095342;28;20047;-39
2022/09/21 04:54:05;;;;;;;5.20;2.00;;;5.60;99.90;;;;;;5083868;28;20047;-38
2022/09/21 04:56:31;;;;;;;2.75;2.17;;;5.60;99.90;;;;;;5059350;28;20089;-39
2022/09/21 04:58:57;;;;;;;4.45;2.35;;;5.60;99.90;;;;;;5073050;28;20065;-39
2022/09/21 05:01:23;;;;;;;3.45;1.83;;;5.60;99.90;;;;;;5091460;28;20091;-38
2022/09/21 05:03:49;;;;;;;3.47;2.03;;;5.60;99.90;;;;;;5089032;28;20368;-38
2022/09/21 05:06:15;;;;;;;3.28;2.00;;;5.50;99.90;;;;;;5077145;28;20062;-39
2022/09/21 05:11:26;;;;;;;6.72;2.85;;;5.60;99.90;;;;;;5090180;28;20052;-38
2022/09/21 05:13:52;;;;;;;3.90;2.47;;;5.60;99.90;;;;;;5076019;28;20047;-40
2022/09/21 05:16:19;;;;;;;3.60;2.08;;;5.50;99.90;;;;;;5089524;28;20094;-39
2022/09/21 05:18:45;;;;;;;3.95;2.33;;;5.50;99.90;;;;;;5097981;28;20043;-50
2022/09/21 05:21:13;;;;;;;2.50;2.17;;;5.50;99.90;;;;;;5057790;28;20058;-50
2022/09/21 05:23:39;;;;;;;3.92;2.15;;;5.50;99.90;;;;;;5096744;27;20391;-49
2022/09/21 05:26:05;;;;;;;3.45;2.15;;;5.50;99.90;;;;;;5098384;27;20586;-48
2022/09/21 05:28:32;;;;;;;7.63;2.60;;;5.50;99.90;;;;;;5100311;27;20092;-52
2022/09/21 05:31:17;;;;;;;3.90;2.58;;;5.50;99.90;;;;;;5096882;28;20089;-48
2022/09/21 05:34:11;;;;;;;6.32;2.75;;;5.50;99.90;;;;;;5098453;28;20570;-41
2022/09/21 05:37:07;;;;;;;4.57;2.58;;;5.50;99.90;;;;;;5096069;27;20139;-40
2022/09/21 05:39:34;;;;;;;7.85;6.00;;;5.50;99.90;;;;;;5077659;28;20115;-40
2022/09/21 05:42:00;;;;;;;5.80;4.10;;;5.50;99.90;;;;;;5097231;28;20477;-40
2022/09/21 05:44:26;;;;;;;8.27;4.28;;;5.50;99.90;;;;;;5073420;28;20101;-40
2022/09/21 05:46:55;;;;;;;4.35;3.55;;;5.50;99.90;;;;;;5095828;27;20494;-40
2022/09/21 05:49:37;;;;;;;6.05;3.55;;;5.50;99.90;;;;;;5095383;28;20059;-39
2022/09/21 05:52:17;;;;;;;6.88;3.30;;;5.60;99.90;;;;;;5095696;27;20050;-40
2022/09/21 05:54:47;;;;;;;4.63;2.90;;;5.60;99.90;;;;;;5093563;27;20043;-39
2022/09/21 05:57:21;;;;;;;3.95;3.03;;;5.60;99.90;;;;;;5094552;28;20549;-40
2022/09/21 05:59:57;;;;;;;5.25;2.58;;;5.60;99.90;;;;;;5094625;27;20771;-40
2022/09/21 06:02:47;;;;;;;4.85;2.75;;;5.70;99.90;;;;;;5095757;27;20436;-52
2022/09/21 06:05:15;;;;;;;4.50;3.00;;;5.70;99.90;;;;;;5098021;28;20047;-55
2022/09/21 06:07:42;;;;;;;5.07;2.65;;;5.80;99.90;;;;;;5101679;28;20031;-58
2022/09/21 06:10:10;;;;;;;3.50;2.30;;;5.80;99.90;;;;;;5101738;27;20092;-58
2022/09/21 06:12:37;;;;;;;4.10;2.40;;;5.90;99.90;;;;;;5096057;27;20139;-38
2022/09/21 06:15:04;;;;;;;5.97;3.13;;;5.90;99.90;;;;;;5078918;28;20055;-57
2022/09/21 06:17:32;;;;;;;6.10;2.60;;;6.00;99.90;;;;;;5090859;28;20438;-38
2022/09/21 06:19:58;;;;;;;3.75;2.83;;;6.00;99.90;;;;;;5097975;28;20066;-38
2022/09/21 06:22:24;;;;;;;3.83;2.75;;;6.10;99.90;;;;;;5079171;28;20039;-39
2022/09/21 06:24:50;;;;;;;3.45;2.55;;;6.20;99.90;;;;;;5097350;27;20444;-59
2022/09/21 06:27:16;;;;;;;6.10;3.40;;;6.30;99.90;;;;;;5094706;28;20042;-58
2022/09/21 06:29:42;;;;;;;7.72;3.60;;;6.30;99.90;;;;;;5113181;27;20808;-59
2022/09/21 06:32:08;;;;;;;3.88;2.72;;;6.40;99.90;;;;;;5095911;27;20051;-58
2022/09/21 06:34:35;;;;;;;5.43;2.78;;;6.50;99.90;;;;;;5075117;28;20601;-58
2022/09/21 06:37:02;;;;;;;4.40;3.05;;;6.70;99.90;;;;;;5095618;28;20126;-38
2022/09/21 06:39:28;;;;;;;6.90;3.03;;;6.80;99.90;;;;;;5098950;28;20039;-57
2022/09/21 06:41:55;;;;;;;4.63;3.13;;;6.80;99.90;;;;;;5079526;28;20107;-57
2022/09/21 06:44:21;;;;;;;4.43;3.00;;;6.90;99.90;;;;;;5098138;27;20039;-55
2022/09/21 06:46:47;;;;;;;6.35;3.65;;;7.10;99.90;;;;;;5099758;27;20039;-54
2022/09/21 06:49:13;;;;;;;7.43;3.15;;;7.40;99.90;;;;;;5098542;28;20499;-53
2022/09/21 06:51:40;;;;;;;4.43;2.97;;;7.60;99.90;;;;;;5098373;28;20230;-55
2022/09/21 06:54:06;;;;;;;6.80;3.20;;;7.90;99.90;;;;;;5102868;27;20491;-40
2022/09/21 06:56:32;;;;;;;6.47;2.88;;;8.20;99.90;;;;;;5064398;28;20107;-57
2022/09/21 06:58:58;;;;;;;5.50;2.50;;;8.40;99.90;;;;;;5081719;28;20394;-58
2022/09/21 07:01:24;;;;;;;3.60;2.00;;;8.60;99.90;;;;;;5098842;28;20102;-41
2022/09/21 07:03:51;;;;;;;7.03;1.98;;;9.00;99.90;;;;;;5098250;27;20097;-44
2022/09/21 07:06:17;;;;;;;3.50;2.05;;;9.30;99.90;;;;;;5080809;28;20547;-40
2022/09/21 07:08:44;;;;;;;4.20;1.98;;;9.70;99.90;;;;;;5096409;28;20755;-57
2022/09/21 07:11:12;;;;;;;6.90;1.85;;;10.00;99.90;;;;;;5103354;27;20546;-58
2022/09/21 07:13:39;;;;;;;4.55;1.63;;;10.30;99.90;;;;;;5075765;28;20410;-58
2022/09/21 07:16:08;;;;;;;5.53;1.55;;;10.70;99.90;;;;;;5092131;27;20052;-58
2022/09/21 07:18:35;;;;;;;3.75;1.83;;;11.10;99.90;;;;;;5096122;27;20432;-60
2022/09/21 07:21:06;;;;;;;8.35;1.90;;;11.50;99.90;;;;;;5092253;27;20274;-58
2022/09/21 07:23:32;;;;;;;6.95;1.75;;;11.90;99.90;;;;;;5095637;28;20042;-58
2022/09/21 07:26:07;;;;;;;6.50;1.98;;;12.40;99.90;;;;;;5096034;28;20370;-58
2022/09/21 07:28:34;;;;;;;5.25;1.45;;;12.70;99.90;;;;;;5095224;28;20054;-58
2022/09/21 07:31:26;;;;;;;6.28;1.75;;;13.00;99.90;;;;;;5102206;27;20118;-41
2022/09/21 07:33:57;;;;;;;18.90;1.75;;;13.30;99.90;;;;;;5078265;28;20498;-43
2022/09/21 07:36:23;;;;;;;4.85;1.60;;;13.70;99.90;;;;;;5077220;28;20043;-43
2022/09/21 07:38:49;;;;;;;8.35;1.90;;;14.00;99.90;;;;;;5094820;27;20044;-41
2022/09/21 07:41:15;;;;;;;5.40;2.45;;;14.30;99.90;;;;;;5105546;27;20131;-41
2022/09/21 07:43:42;;;;;;;6.78;1.88;;;14.70;99.90;;;;;;5097340;28;20047;-45
2022/09/21 07:46:09;;;;;;;5.80;3.15;;;15.30;99.90;;;;;;5097570;28;20436;-44
2022/09/21 07:48:36;;;;;;;4.18;1.85;;;15.40;99.90;;;;;;5095109;27;20058;-59
2022/09/21 07:51:05;;;;;;;5.28;2.00;;;15.80;99.90;;;;;;5082484;28;20529;-59
2022/09/21 07:53:35;;;;;;;6.93;2.28;;;16.30;99.90;;;;;;5096427;27;20056;-58
2022/09/21 07:56:07;;;;;;;4.47;1.80;;;16.60;99.90;;;;;;5108426;27;20040;-58
2022/09/21 08:01:19;;;;;;;6.68;1.88;;;17.40;99.90;;;;;;5100024;27;20047;-46
2022/09/21 08:03:48;;;;;;;5.15;1.40;;;17.60;99.90;;;;;;5096581;27;20079;-43
2022/09/21 08:06:18;;;;;;;8.75;1.80;;;18.10;99.90;;;;;;5094843;27;20048;-42
2022/09/21 08:08:47;;;;;;;6.20;1.67;;;18.40;99.90;;;;;;5089931;28;20350;-59
2022/09/21 08:11:15;;;;;;;4.80;1.63;;;18.70;99.90;;;;;;5091802;28;20079;-58
2022/09/21 08:13:42;;;;;;;6.85;1.98;;;18.80;99.90;;;;;;5093993;28;20051;-59
2022/09/21 08:16:09;;;;;;;5.18;1.50;;;19.10;99.90;;;;;;5089038;27;20063;-58
2022/09/21 08:18:39;;;;;;;8.35;1.60;;;19.10;99.90;;;;;;5091262;28;20123;-60
2022/09/21 08:21:08;;;;;;;4.63;1.65;;;19.50;99.90;;;;;;5093301;28;20046;-58
2022/09/21 08:23:39;;;;;;;6.25;2.03;;;19.80;99.90;;;;;;5091719;28;20128;-58
2022/09/21 08:26:06;;;;;;;6.50;1.70;;;20.00;99.90;;;;;;5092943;28;20047;-58
2022/09/21 08:28:35;;;;;;;5.78;1.65;;;20.10;99.90;;;;;;5089759;28;20386;-58
2022/09/21 08:31:09;;;;;;;5.75;1.77;;;20.20;99.90;;;;;;5095913;28;20048;-58
2022/09/21 08:33:35;;;;;;;8.05;2.15;;;20.40;99.90;;;;;;5092041;28;20051;-58
2022/09/21 08:36:03;;;;;;;6.00;1.58;;;20.90;99.90;;;;;;5092635;28;20055;-58
2022/09/21 08:38:34;;;;;;;7.22;1.77;;;20.80;99.90;;;;;;5088334;28;20044;-42
2022/09/21 08:41:11;;;;;;;6.10;1.80;;;21.20;99.90;;;;;;5094908;28;20140;-45
2022/09/21 08:43:43;;;;;;;6.90;1.60;;;21.50;99.90;;;;;;5109754;27;20480;-45
2022/09/21 08:46:14;;;;;;;5.10;1.67;;;21.70;99.90;;;;;;5075976;28;20040;-43
2022/09/21 08:48:54;;;;;;;6.45;1.63;;;21.50;99.90;;;;;;5092029;28;20080;-43
2022/09/21 08:51:25;;;;;;;5.82;1.60;;;21.90;99.90;;;;;;5095099;28;20248;-58
2022/09/21 08:53:56;;;;;;;5.85;1.42;;;22.40;99.90;;;;;;5089684;28;20066;-58
2022/09/21 08:56:24;;;;;;;6.00;1.63;;;22.10;99.90;;;;;;5089952;28;20100;-58
2022/09/21 08:58:50;;;;;;;6.30;1.60;;;22.70;98.30;;;;;;5098338;28;20048;-58
2022/09/21 09:01:22;;;;;;;6.05;1.27;;;22.80;98.40;;;;;;5095791;27;20046;-59
2022/09/21 09:04:10;;;;;;;4.97;1.88;;;22.50;95.90;;;;;;5098768;28;20047;-58
2022/09/21 09:06:58;;;;;;;9.27;1.73;;;22.40;93.20;;;;;;5098444;28;20065;-46
2022/09/21 09:09:50;;;;;;;7.40;1.73;;;22.60;93.60;;;;;;5087513;28;21576;-58
2022/09/21 09:12:21;;;;;;;6.28;1.55;;;22.90;94.40;;;;;;5099945;27;20051;-44
2022/09/21 09:14:56;;;;;;;;;;;23.00;88.90;;;;;;5099253;28;20059;-48
2022/09/21 09:17:35;;;;;;;5.97;1.33;;;23.00;84.60;;;;;;5097489;28;19923;-45
2022/09/21 09:20:19;;;;;;;5.78;1.10;;;23.30;83.20;;;;;;5076613;28;20130;-59
2022/09/21 09:23:20;;;;;;;4.82;1.40;;;23.50;78.50;;;;;;5078604;28;20062;-59
2022/09/21 09:25:49;;;;;;;;;;;23.50;76.90;;;;;;5091099;28;20039;-43
2022/09/21 09:28:44;;;;;;;7.63;1.45;;;23.80;66.90;;;;;;5078610;28;20417;-59
2022/09/21 09:31:22;;;;;;;4.72;1.00;;;24.10;69.00;;;;;;5071550;28;20170;-43
2022/09/21 09:33:53;;;;;;;4.30;1.20;;;24.40;75.00;;;;;;5056551;28;20077;-43
2022/09/21 09:36:20;;;;;;;4.72;1.13;;;24.60;67.60;;;;;;5075060;28;20036;-43
2022/09/21 09:38:55;;;;;;;5.30;1.05;;;25.20;64.40;;;;;;5077982;28;20054;-43
2022/09/21 09:41:40;;;;;;;5.90;1.05;;;25.10;63.80;;;;;;5074126;28;20048;-59
2022/09/21 09:44:32;;;;;;;3.92;1.00;;;25.30;62.70;;;;;;5057475;28;20086;-44
2022/09/21 09:47:15;;;;;;;4.35;1.00;;;25.30;58.40;;;;;;5075827;28;20046;-46
2022/09/21 09:50:00;;;;;;;4.30;1.02;;;25.10;60.90;;;;;;5077787;28;20040;-42
2022/09/21 09:52:26;;;;;;;5.93;0.90;;;24.70;58.20;;;;;;5057413;28;20048;-50
2022/09/21 09:54:53;;;;;;;4.53;0.65;;;23.70;62.50;;;;;;5077423;28;21874;-44
2022/09/21 09:57:32;;;;;;;3.50;0.85;;;22.70;63.60;;;;;;5058120;28;20476;-45
2022/09/21 10:00:11;;;;;;;5.10;1.15;;;21.40;66.90;;;;;;5077895;28;20040;-44
2022/09/21 10:02:51;;;;;;;6.13;1.38;;;21.60;80.70;;;;;;5072515;28;20042;-43
2022/09/21 10:05:22;;;;;;;5.97;0.82;;;22.10;66.40;;;;;;5078453;28;20044;-58
2022/09/21 10:07:49;;;;;;;5.18;0.98;;;23.20;61.70;;;;;;5076151;28;20510;-59
2022/09/21 10:10:33;;;;;;;6.20;2.58;;;24.10;62.60;;;;;;5064498;28;20040;-59
2022/09/21 10:13:23;;;;;;;6.90;2.45;;;25.10;60.90;;;;;;5075611;28;20134;-59
2022/09/21 10:15:56;;;;;;;4.05;1.00;;;25.20;57.40;;;;;;5076673;28;20056;-59
2022/09/21 10:18:51;;;;;;;4.20;0.90;;;25.10;56.70;;;;;;5076996;28;20409;-59
2022/09/21 10:21:39;;;;;;;6.78;2.50;;;25.70;54.30;;;;;;5074806;28;20432;-59
2022/09/21 10:24:18;;;;;;;6.68;1.20;;;26.10;56.40;;;;;;5078796;28;20055;-59
2022/09/21 10:26:47;;;;;;;4.63;1.30;;;26.00;53.50;;;;;;5053623;28;20096;-59
2022/09/21 10:29:24;;;;;;;4.05;1.00;;;26.10;54.80;;;;;;5077800;28;20040;-59
2022/09/21 10:32:11;;;;;;;5.68;1.13;;;25.20;52.60;;;;;;5052974;28;20073;-59
2022/09/21 10:34:57;;;;;;;4.55;0.90;;;25.20;54.70;;;;;;5058156;28;20400;-59
2022/09/21 10:37:28;;;;;;;4.82;1.02;;;25.00;55.80;;;;;;5078394;28;20488;-59
2022/09/21 10:39:55;;;;;;;6.90;1.25;;;24.20;56.10;;;;;;5058384;28;20056;-58
2022/09/21 10:42:22;;;;;;;6.55;1.17;;;23.20;57.80;;;;;;5075091;28;20116;-58
2022/09/21 10:45:14;;;;;;;4.25;1.23;;;22.70;59.40;;;;;;5076485;28;20411;-58
2022/09/21 10:47:48;;;;;;;4.18;1.02;;;22.00;61.00;;;;;;5077752;28;20044;-46
2022/09/21 10:50:36;;;;;;;4.18;0.80;;;21.30;66.80;;;;;;5075372;28;20048;-42
2022/09/21 10:53:08;;;;;;;5.55;1.10;;;20.80;73.70;;;;;;5074259;28;20813;-44
2022/09/21 10:55:49;;;;;;;4.18;1.00;;;20.30;79.40;;;;;;5074996;28;20048;-41
2022/09/21 10:58:16;;;;;;;4.38;1.13;;;20.00;80.10;;;;;;5079925;28;20460;-44
2022/09/21 11:00:50;;;;;;;5.63;0.93;;;19.70;84.40;;;;;;5072038;28;20052;-59
2022/09/21 11:03:49;;;;;;;5.85;1.00;;;19.30;85.60;;;;;;5071956;28;20119;-58
2022/09/21 11:06:39;;;;;;;6.10;1.17;;;19.20;87.50;;;;;;5070304;28;20161;-58
2022/09/21 11:09:44;;;;;;;6.90;1.00;;;19.80;91.20;;;;;;5057379;28;20048;-58
2022/09/21 11:12:29;;;;;;;5.75;1.45;;;21.10;81.00;;;;;;5064936;28;20135;-59
2022/09/21 11:15:15;;;;;;;6.07;1.02;;;22.50;71.40;;;;;;5075888;28;20055;-59
2022/09/21 11:18:11;;;;;;;3.75;1.25;;;21.70;68.90;;;;;;5055402;28;20046;-58
2022/09/21 11:20:59;;;;;;;3.47;0.80;;;21.00;73.70;;;;;;5062517;28;20051;-58
2022/09/21 11:24:16;;;;;;;5.43;0.80;;;20.50;80.50;;;;;;5079125;28;20086;-58
2022/09/21 11:26:58;;;;;;;7.25;1.05;;;19.80;86.40;;;;;;5074847;28;20048;-42
2022/09/21 11:29:35;;;;;;;5.10;0.75;;;19.50;89.60;;;;;;5079392;28;20044;-42
2022/09/21 11:32:19;;;;;;;5.75;1.10;;;19.40;92.70;;;;;;5059719;28;20482;-44
2022/09/21 11:35:14;;;;;;;5.97;1.10;;;20.40;88.50;;;;;;5071779;28;20044;-42
2022/09/21 11:37:46;;;;;;;5.18;0.95;;;21.60;85.10;;;;;;5058155;28;20056;-58
2022/09/21 11:40:46;;;;;;;2.47;0.60;;;23.50;65.70;;;;;;5077628;28;20040;-59
2022/09/21 11:43:34;;;;;;;5.63;1.45;;;24.20;57.60;;;;;;5078612;28;20170;-59
2022/09/21 11:46:15;;;;;;;4.47;0.90;;;25.00;56.20;;;;;;5075411;28;20050;-59
2022/09/21 11:48:41;;;;;;;;;;;25.80;53.40;;;;;;5077774;28;20088;-58
2022/09/21 11:51:22;;;;;;;4.40;0.93;;;25.50;50.50;;;;;;5079736;28;20407;-59
2022/09/21 11:54:24;;;;;;;4.60;1.30;;;25.70;52.40;;;;;;5071773;28;20048;-59
2022/09/21 11:57:17;;;;;;;3.65;0.75;;;26.50;50.20;;;;;;5077445;28;20048;-43
2022/09/21 11:59:53;;;;;;;5.80;1.30;;;26.60;50.00;;;;;;5078828;28;20066;-43
2022/09/21 12:02:50;;;;;;;3.97;0.80;;;26.60;47.50;;;;;;5076974;28;20087;-43
2022/09/21 12:05:53;;;;;;;3.03;0.80;;;26.80;47.00;;;;;;5071235;28;20044;-47
2022/09/21 12:08:58;;;;;;;4.93;0.88;;;26.20;48.00;;;;;;5016242;28;20048;-45
2022/09/21 12:11:49;;;;;;;5.25;1.38;;;27.30;46.30;;;;;;5052495;22;20062;-56
2022/09/21 12:14:49;;;;;;;6.32;2.05;;;26.40;47.40;;;;;;4973502;28;20120;-54
2022/09/21 12:17:44;;;;;;;4.15;1.30;;;25.50;48.10;;;;;;4967261;28;20062;-56
2022/09/21 12:20:13;;;;;;;5.05;0.90;;;26.10;47.80;;;;;;4979007;28;20078;-56
2022/09/21 12:22:43;;;;;;;4.40;1.00;;;26.60;48.30;;;;;;4980256;28;20050;-56
2022/09/21 12:25:15;;;;;;;5.97;0.80;;;27.00;47.40;;;;;;4977151;28;20057;-56
2022/09/21 12:27:48;;;;;;;2.70;0.70;;;26.40;46.60;;;;;;4974425;28;20116;-54
2022/09/21 12:30:20;;;;;;;2.83;0.82;;;25.20;46.90;;;;;;4978075;28;20058;-52
2022/09/21 12:33:25;;;;;;;4.32;1.17;;;24.30;47.90;;;;;;4980136;28;20515;-56
2022/09/21 12:36:01;;;;;;;4.60;0.82;;;24.10;48.50;;;;;;4978218;28;20125;-55
2022/09/21 12:38:38;;;;;;;5.00;0.90;;;23.60;50.00;;;;;;5011094;28;20100;-55
2022/09/21 12:41:45;;;;;;;3.50;0.85;;;22.80;50.20;;;;;;4979873;28;20113;-56
2022/09/21 12:44:50;;;;;;;4.57;1.10;;;22.60;50.10;;;;;;4978079;28;20101;-55
2022/09/21 12:47:38;;;;;;;4.05;0.80;;;23.90;49.20;;;;;;4977858;28;20126;-49
2022/09/21 12:50:30;;;;;;;5.47;1.13;;;24.80;48.70;;;;;;4977759;28;20051;-50
2022/09/21 12:52:57;;;;;;;5.20;1.17;;;25.40;46.20;;;;;;4979202;28;20042;-51
2022/09/21 12:55:32;;;;;;;5.78;1.10;;;26.20;46.30;;;;;;4979804;28;20567;-46
2022/09/21 12:58:13;;;;;;;6.18;0.90;;;26.30;45.40;;;;;;4979995;28;20050;-50
2022/09/21 13:01:12;;;;;;;5.85;1.10;;;26.70;44.60;;;;;;4992000;28;20100;-51
2022/09/21 13:04:22;;;;;;;4.72;0.90;;;27.30;46.50;;;;;;4976927;28;20050;-51
2022/09/21 13:06:54;;;;;;;6.07;1.58;;;27.00;45.60;;;;;;4945109;28;20050;-49
2022/09/21 13:09:22;;;;;;;4.22;0.98;;;27.60;45.50;;;;;;4995367;28;20054;-50
2022/09/21 13:11:54;;;;;;;4.88;1.10;;;27.80;45.50;;;;;;4981368;28;20055;-52
2022/09/21 13:14:23;;;;;;;7.47;1.55;;;28.10;44.10;;;;;;4981114;28;20050;-50
2022/09/21 13:16:59;;;;;;;4.15;1.13;;;27.80;45.10;;;;;;4978345;28;20058;-49
2022/09/21 13:19:30;;;;;;;4.03;1.00;;;27.30;44.90;;;;;;4980313;28;20054;-50
2022/09/21 13:22:14;;;;;;;7.22;1.33;;;27.40;44.70;;;;;;5009873;28;20586;-50
2022/09/21 13:24:42;;;;;;;4.68;1.15;;;27.80;44.20;;;;;;4974254;28;20657;-50
2022/09/21 13:27:08;;;;;;;4.68;0.82;;;27.40;44.50;;;;;;4975805;28;20400;-51
2022/09/21 13:29:36;;;;;;;5.75;1.60;;;27.30;44.60;;;;;;4982094;28;20078;-49
2022/09/21 13:32:19;;;;;;;5.10;1.20;;;27.30;45.20;;;;;;4980341;28;20038;-50
2022/09/21 13:34:49;;;;;;;4.72;1.40;;;27.60;44.80;;;;;;4978002;28;20046;-49